createdAt,value
2019-01-26T00:02:12.190Z,16.70
2019-01-26T00:04:42.373Z,14.55
2019-01-26T00:07:12.563Z,18.05
2019-01-26T00:09:43.018Z,13.43
2019-01-26T00:12:13.238Z,14.93
2019-01-26T00:14:43.345Z,16.40
2019-01-26T00:17:13.577Z,14.10
2019-01-26T00:19:43.719Z,8.58
2019-01-26T00:22:13.931Z,16.70
2019-01-26T00:24:44.124Z,14.07
2019-01-26T00:27:14.279Z,16.35
2019-01-26T00:29:44.439Z,14.55
2019-01-26T00:32:14.628Z,9.05
2019-01-26T00:34:44.780Z,11.97
2019-01-26T00:37:14.918Z,13.43
2019-01-26T00:39:45.238Z,13.53
2019-01-26T00:42:15.308Z,16.42
2019-01-26T00:44:45.455Z,5.75
2019-01-26T00:47:15.728Z,13.22
2019-01-26T00:49:48.913Z,9.05
2019-01-26T00:52:19.053Z,15.88
2019-01-26T00:54:50.841Z,16.15
2019-01-26T00:57:20.982Z,16.17
2019-01-26T00:59:51.160Z,15.65
2019-01-26T01:02:21.316Z,15.32
2019-01-26T01:04:51.697Z,13.90
2019-01-26T01:07:21.958Z,15.50
2019-01-26T01:09:52.076Z,15.28
2019-01-26T01:12:22.233Z,17.90
2019-01-26T01:14:52.393Z,9.95
2019-01-26T01:17:22.792Z,15.72
2019-01-26T01:19:52.949Z,14.43
2019-01-26T01:22:23.658Z,12.47
2019-01-26T01:24:53.781Z,14.07
2019-01-26T01:27:23.974Z,11.28
2019-01-26T01:29:54.359Z,12.18
2019-01-26T01:32:24.524Z,15.50
2019-01-26T01:34:54.768Z,14.23
2019-01-26T01:37:25.227Z,11.08
2019-01-26T01:39:55.407Z,13.30
2019-01-26T01:42:25.580Z,14.25
2019-01-26T01:44:55.714Z,11.78
2019-01-26T01:47:25.872Z,14.58
2019-01-26T01:49:56.127Z,10.03
2019-01-26T01:52:26.263Z,16.60
2019-01-26T01:54:56.426Z,11.83
2019-01-26T01:57:26.576Z,13.85
2019-01-26T01:59:56.750Z,14.23
2019-01-26T02:02:26.882Z,14.58
2019-01-26T02:04:57.025Z,14.63
2019-01-26T02:07:27.234Z,15.25
2019-01-26T02:09:57.467Z,13.93
2019-01-26T02:12:27.610Z,13.22
2019-01-26T02:14:57.822Z,16.20
2019-01-26T02:17:27.967Z,12.58
2019-01-26T02:19:58.144Z,10.18
2019-01-26T02:22:29.170Z,13.95
2019-01-26T02:24:59.375Z,14.83
2019-01-26T02:27:29.712Z,14.75
2019-01-26T02:29:59.851Z,9.65
2019-01-26T02:32:30.004Z,15.25
2019-01-26T02:35:00.321Z,12.90
2019-01-26T02:37:30.487Z,12.25
2019-01-26T02:40:00.702Z,15.13
2019-01-26T02:42:30.838Z,10.55
2019-01-26T02:45:00.969Z,13.48
2019-01-26T02:47:31.126Z,14.50
2019-01-26T02:50:01.317Z,12.18
2019-01-26T02:52:31.494Z,15.70
2019-01-26T02:55:01.650Z,11.65
2019-01-26T02:57:31.887Z,10.50
2019-01-26T03:00:02.074Z,12.78
2019-01-26T03:02:32.213Z,13.80
2019-01-26T03:05:02.374Z,16.37
2019-01-26T03:07:32.541Z,10.70
2019-01-26T03:10:02.678Z,12.03
2019-01-26T03:12:32.838Z,10.40
2019-01-26T03:15:03.158Z,12.40
2019-01-26T03:17:33.332Z,12.07
2019-01-26T03:20:04.693Z,11.35
2019-01-26T03:22:34.866Z,11.53
2019-01-26T03:25:07.323Z,11.93
2019-01-26T03:27:37.501Z,14.75
2019-01-26T03:30:19.524Z,11.45
2019-01-26T03:32:49.695Z,12.07
2019-01-26T03:35:20.059Z,11.68
2019-01-26T03:37:50.247Z,10.15
2019-01-26T03:40:22.501Z,10.58
2019-01-26T03:42:52.747Z,9.88
2019-01-26T03:45:22.981Z,11.97
2019-01-26T03:47:53.135Z,12.07
2019-01-26T03:50:23.324Z,11.78
2019-01-26T03:52:53.480Z,11.48
2019-01-26T03:55:23.721Z,12.68
2019-01-26T03:57:54.043Z,10.85
2019-01-26T04:00:28.254Z,11.18
2019-01-26T04:02:58.576Z,10.88
2019-01-26T04:05:28.728Z,9.58
2019-01-26T04:07:58.946Z,12.35
2019-01-26T04:10:29.184Z,11.97
2019-01-26T04:12:59.342Z,12.03
2019-01-26T04:15:29.517Z,7.78
2019-01-26T04:17:59.683Z,11.00
2019-01-26T04:20:29.825Z,10.32
2019-01-26T04:22:59.986Z,13.65
2019-01-26T04:25:30.137Z,10.75
2019-01-26T04:28:00.317Z,6.33
2019-01-26T04:30:30.470Z,9.73
2019-01-26T04:33:00.617Z,9.40
2019-01-26T04:35:30.860Z,12.37
2019-01-26T04:38:01.096Z,11.95
2019-01-26T04:40:31.238Z,8.83
2019-01-26T04:43:01.399Z,4.40
2019-01-26T04:45:31.556Z,5.08
2019-01-26T04:48:01.730Z,10.58
2019-01-26T04:50:31.880Z,7.55
2019-01-26T04:53:02.040Z,7.78
2019-01-26T04:55:32.182Z,5.95
2019-01-26T04:58:02.341Z,9.93
2019-01-26T05:00:32.579Z,5.30
2019-01-26T05:03:02.744Z,10.00
2019-01-26T05:06:12.643Z,6.80
2019-01-26T05:08:42.855Z,9.70
2019-01-26T05:11:12.992Z,10.32
2019-01-26T05:13:43.215Z,6.17
2019-01-26T05:16:13.687Z,6.70
2019-01-26T05:18:43.826Z,12.45
2019-01-26T05:21:13.959Z,5.65
2019-01-26T05:23:44.128Z,5.55
2019-01-26T05:26:14.289Z,7.97
2019-01-26T05:28:44.446Z,10.20
2019-01-26T05:31:14.588Z,10.80
2019-01-26T05:33:44.750Z,10.32
2019-01-26T05:36:14.944Z,10.08
2019-01-26T05:38:45.114Z,3.35
2019-01-26T05:41:15.252Z,8.45
2019-01-26T05:43:45.438Z,8.13
2019-01-26T05:46:15.596Z,7.22
2019-01-26T05:48:45.770Z,9.38
2019-01-26T05:51:15.908Z,8.10
2019-01-26T05:53:46.069Z,7.92
2019-01-26T05:56:16.203Z,4.10
2019-01-26T05:58:46.386Z,3.77
2019-01-26T06:01:16.555Z,8.13
2019-01-26T06:03:46.705Z,7.55
2019-01-26T06:06:17.147Z,9.95
2019-01-26T06:08:47.286Z,5.15
2019-01-26T06:11:17.529Z,7.62
2019-01-26T06:13:47.674Z,7.45
2019-01-26T06:16:17.838Z,7.53
2019-01-26T06:18:47.976Z,5.05
2019-01-26T06:21:18.158Z,8.68
2019-01-26T06:23:48.632Z,6.28
2019-01-26T06:26:18.775Z,5.92
2019-01-26T06:28:48.936Z,7.05
2019-01-26T06:31:19.130Z,9.63
2019-01-26T06:33:49.259Z,5.65
2019-01-26T06:40:12.634Z,5.97
2019-01-26T06:42:42.829Z,8.15
2019-01-26T06:45:16.135Z,9.00
2019-01-26T06:47:46.551Z,8.15
2019-01-26T06:50:24.066Z,12.53
2019-01-26T06:52:54.208Z,8.38
2019-01-26T06:55:24.384Z,8.75
2019-01-26T06:57:54.558Z,8.70
2019-01-26T07:00:28.056Z,8.55
2019-01-26T07:02:58.304Z,8.25
2019-01-26T07:05:32.604Z,8.25
2019-01-26T07:08:02.782Z,6.85
2019-01-26T07:10:32.927Z,9.80
2019-01-26T07:13:03.196Z,8.95
2019-01-26T07:15:33.447Z,8.03
2019-01-26T07:18:09.339Z,8.45
2019-01-26T07:20:35.515Z,7.87
2019-01-26T07:23:06.019Z,8.65
2019-01-26T07:25:36.169Z,8.50
2019-01-26T07:28:06.764Z,5.20
2019-01-26T07:30:36.942Z,8.60
2019-01-26T07:33:07.352Z,7.50
2019-01-26T07:35:37.526Z,9.63
2019-01-26T07:38:13.498Z,8.83
2019-01-26T07:40:39.876Z,9.48
2019-01-26T07:43:10.288Z,9.83
2019-01-26T07:45:40.454Z,8.95
2019-01-26T07:48:16.690Z,7.55
2019-01-26T07:50:42.769Z,8.18
2019-01-26T07:53:12.929Z,8.00
2019-01-26T07:55:43.097Z,8.35
2019-01-26T07:58:13.298Z,7.00
2019-01-26T08:00:43.434Z,10.10
2019-01-26T08:03:13.568Z,9.20
2019-01-26T08:05:43.736Z,5.75
2019-01-26T08:08:13.888Z,9.33
2019-01-26T08:10:44.037Z,7.65
2019-01-26T08:13:14.213Z,8.20
2019-01-26T08:15:44.366Z,5.83
2019-01-26T08:18:14.538Z,6.60
2019-01-26T08:20:44.763Z,9.73
2019-01-26T08:23:14.908Z,8.13
2019-01-26T08:25:45.069Z,8.45
2019-01-26T08:28:15.237Z,7.08
2019-01-26T08:30:45.408Z,7.65
2019-01-26T08:33:15.548Z,8.68
2019-01-26T08:35:45.780Z,8.80
2019-01-26T08:38:15.981Z,6.85
2019-01-26T08:40:46.147Z,6.53
2019-01-26T08:43:16.326Z,7.83
2019-01-26T08:45:46.484Z,6.58
2019-01-26T08:48:16.629Z,6.83
2019-01-26T08:50:46.802Z,7.95
2019-01-26T08:53:16.967Z,9.78
2019-01-26T08:55:47.138Z,5.87
2019-01-26T08:58:17.306Z,8.15
2019-01-26T09:00:47.452Z,8.73
2019-01-26T09:03:25.373Z,6.60
2019-01-26T09:06:00.435Z,7.60
2019-01-26T09:08:30.688Z,8.13
2019-01-26T09:11:01.038Z,8.30
2019-01-26T09:13:31.200Z,6.72
2019-01-26T09:16:01.434Z,7.12
2019-01-26T09:18:38.563Z,5.70
2019-01-26T09:21:03.522Z,6.00
2019-01-26T09:23:33.853Z,7.00
2019-01-26T09:26:04.279Z,7.10
2019-01-26T09:28:34.431Z,10.20
2019-01-26T09:31:04.638Z,7.45
2019-01-26T09:33:34.769Z,5.73
2019-01-26T09:36:05.945Z,8.80
2019-01-26T09:38:36.091Z,8.20
2019-01-26T09:41:06.587Z,9.05
2019-01-26T09:43:36.815Z,8.00
2019-01-26T09:46:07.159Z,8.83
2019-01-26T09:48:37.581Z,8.90
2019-01-26T09:51:07.811Z,5.57
2019-01-26T09:53:38.026Z,8.43
2019-01-26T09:56:08.219Z,8.35
2019-01-26T09:58:38.383Z,8.70
2019-01-26T10:01:08.604Z,9.40
2019-01-26T10:03:38.841Z,9.50
2019-01-26T10:06:09.320Z,5.47
2019-01-26T10:08:39.443Z,7.28
2019-01-26T10:11:09.593Z,7.25
2019-01-26T10:13:39.737Z,8.53
2019-01-26T10:16:09.908Z,6.20
2019-01-26T10:18:40.078Z,6.65
2019-01-26T10:21:10.234Z,8.78
2019-01-26T10:23:40.417Z,7.53
2019-01-26T10:26:10.741Z,7.17
2019-01-26T10:28:40.907Z,8.23
2019-01-26T10:31:11.142Z,6.22
2019-01-26T10:33:41.305Z,7.40
2019-01-26T10:36:11.238Z,9.05
2019-01-26T10:38:43.033Z,8.10
2019-01-26T10:41:14.830Z,7.35
2019-01-26T10:43:52.848Z,6.40
2019-01-26T10:46:23.023Z,5.15
2019-01-26T10:48:53.153Z,7.33
2019-01-26T10:51:23.367Z,7.92
2019-01-26T10:53:53.764Z,6.90
2019-01-26T10:56:23.950Z,8.10
2019-01-26T10:58:54.105Z,8.20
2019-01-26T11:01:24.288Z,8.10
2019-01-26T11:03:54.747Z,7.40
2019-01-26T11:06:24.883Z,7.20
2019-01-26T11:08:55.963Z,6.33
2019-01-26T11:11:26.125Z,6.93
2019-01-26T11:13:56.308Z,5.47
2019-01-26T11:16:26.456Z,7.22
2019-01-26T11:18:56.639Z,5.45
2019-01-26T11:21:27.145Z,4.25
2019-01-26T11:23:57.282Z,5.78
2019-01-26T11:26:27.518Z,7.77
2019-01-26T11:28:57.689Z,6.00
2019-01-26T11:31:28.043Z,8.67
2019-01-26T11:33:58.179Z,7.70
2019-01-26T11:36:28.340Z,5.90
2019-01-26T11:38:58.496Z,3.60
2019-01-26T11:41:28.639Z,7.07
2019-01-26T11:43:58.867Z,7.00
2019-01-26T11:46:29.039Z,5.57
2019-01-26T11:48:59.521Z,5.47
2019-01-26T11:51:34.203Z,7.30
2019-01-26T11:54:04.445Z,6.00
2019-01-26T11:56:41.976Z,6.47
2019-01-26T11:59:12.218Z,6.73
2019-01-26T12:01:43.997Z,3.63
2019-01-26T12:04:18.694Z,6.00
2019-01-26T12:06:50.474Z,5.87
2019-01-26T12:09:20.689Z,6.90
2019-01-26T12:11:50.907Z,6.80
2019-01-26T12:14:21.075Z,7.00
2019-01-26T12:16:51.226Z,7.10
2019-01-26T12:19:22.399Z,6.77
2019-01-26T12:21:52.736Z,6.33
2019-01-26T12:24:22.886Z,6.40
2019-01-26T12:26:53.055Z,5.83
2019-01-26T12:29:23.181Z,6.37
2019-01-26T12:31:53.354Z,4.87
2019-01-26T12:34:23.729Z,6.13
2019-01-26T12:36:53.985Z,5.50
2019-01-26T12:39:24.198Z,6.80
2019-01-26T12:41:54.323Z,6.07
2019-01-26T12:44:24.497Z,7.20
2019-01-26T12:47:00.496Z,6.47
2019-01-26T12:49:30.703Z,5.17
2019-01-26T12:52:00.859Z,7.00
2019-01-26T12:54:31.000Z,5.47
2019-01-26T12:57:01.157Z,4.07
2019-01-26T12:59:31.307Z,4.63
2019-01-26T13:02:01.509Z,6.13
2019-01-26T13:04:31.657Z,6.70
2019-01-26T13:07:01.935Z,6.10
2019-01-26T13:09:32.134Z,5.87
2019-01-26T13:12:02.325Z,5.10
2019-01-26T13:14:32.651Z,6.90
2019-01-26T13:17:02.792Z,6.03
2019-01-26T13:19:37.018Z,5.80
2019-01-26T13:22:05.080Z,6.30
2019-01-26T13:24:35.229Z,5.73
2019-01-26T13:27:05.374Z,5.43
2019-01-26T13:29:35.686Z,5.10
2019-01-26T13:32:06.002Z,5.03
2019-01-26T13:34:36.149Z,6.50
2019-01-26T13:37:06.389Z,3.30
2019-01-26T13:39:36.577Z,5.33
2019-01-26T13:42:06.797Z,5.60
2019-01-26T13:44:36.964Z,4.40
2019-01-26T13:47:07.425Z,4.63
2019-01-26T13:49:43.876Z,5.60
2019-01-26T13:52:09.457Z,5.20
2019-01-26T13:54:39.607Z,2.60
2019-01-26T13:57:09.850Z,5.43
2019-01-26T13:59:40.004Z,6.17
2019-01-26T14:02:10.141Z,7.17
2019-01-26T14:04:40.292Z,5.37
2019-01-26T14:07:10.441Z,6.07
2019-01-26T14:09:40.678Z,4.73
2019-01-26T14:12:10.834Z,5.47
2019-01-26T14:14:41.018Z,5.73
2019-01-26T14:17:11.317Z,5.30
2019-01-26T14:19:41.453Z,3.87
2019-01-26T14:22:11.628Z,7.43
2019-01-26T14:24:41.758Z,5.70
2019-01-26T14:27:11.902Z,5.50
2019-01-26T14:29:42.061Z,5.70
2019-01-26T14:32:12.231Z,4.37
2019-01-26T14:34:42.376Z,5.00
2019-01-26T14:37:12.556Z,5.17
2019-01-26T14:39:42.712Z,3.23
2019-01-26T14:42:12.866Z,4.30
2019-01-26T14:44:43.056Z,5.13
2019-01-26T14:47:13.208Z,3.47
2019-01-26T14:49:43.442Z,5.53
2019-01-26T14:52:13.579Z,5.60
2019-01-26T14:54:43.749Z,5.17
2019-01-26T14:57:13.940Z,4.73
2019-01-26T14:59:44.059Z,5.20
2019-01-26T15:02:14.220Z,4.80
2019-01-26T15:04:44.391Z,4.97
2019-01-26T15:07:14.524Z,5.60
2019-01-26T15:09:44.685Z,4.90
2019-01-26T15:12:14.835Z,3.57
2019-01-26T15:14:44.986Z,4.10
2019-01-26T15:17:15.258Z,5.37
2019-01-26T15:19:45.672Z,6.47
2019-01-26T15:22:15.809Z,5.70
2019-01-26T15:24:45.963Z,6.47
2019-01-26T15:27:16.113Z,5.70
2019-01-26T15:29:46.283Z,3.80
2019-01-26T15:32:16.454Z,5.70
2019-01-26T15:34:46.596Z,5.87
2019-01-26T15:37:16.767Z,6.07
2019-01-26T15:39:47.209Z,5.67
2019-01-26T15:42:17.383Z,6.03
2019-01-26T15:44:47.933Z,4.97
2019-01-26T15:47:18.081Z,5.80
2019-01-26T15:49:48.216Z,4.73
2019-01-26T15:52:18.401Z,5.87
2019-01-26T15:54:48.548Z,6.27
2019-01-26T15:57:18.764Z,5.27
2019-01-26T15:59:53.369Z,4.43
2019-01-26T16:02:20.860Z,4.90
2019-01-26T16:04:51.039Z,4.57
2019-01-26T16:07:21.439Z,6.80
2019-01-26T16:09:51.601Z,5.40
2019-01-26T16:12:21.966Z,4.23
2019-01-26T16:14:52.149Z,5.67
2019-01-26T16:17:22.296Z,5.47
2019-01-26T16:19:52.466Z,6.83
2019-01-26T16:22:22.606Z,5.60
2019-01-26T16:24:52.759Z,5.37
2019-01-26T16:27:23.020Z,5.50
2019-01-26T16:29:53.165Z,5.17
2019-01-26T16:32:23.339Z,4.70
2019-01-26T16:34:53.495Z,5.07
2019-01-26T16:37:23.634Z,5.60
2019-01-26T16:39:53.875Z,6.13
2019-01-26T16:42:24.085Z,5.50
2019-01-26T16:44:54.331Z,5.43
2019-01-26T16:47:24.521Z,5.53
2019-01-26T16:49:54.690Z,6.07
2019-01-26T16:52:24.845Z,5.93
2019-01-26T16:54:55.001Z,5.60
2019-01-26T16:57:25.176Z,4.77
2019-01-26T16:59:55.335Z,6.20
2019-01-26T17:02:25.474Z,4.97
2019-01-26T17:04:55.862Z,6.83
2019-01-26T17:07:26.054Z,5.80
2019-01-26T17:09:56.235Z,6.27
2019-01-26T17:12:26.446Z,6.30
2019-01-26T17:14:56.590Z,5.40
2019-01-26T17:17:26.770Z,6.20
2019-01-26T17:19:56.940Z,5.77
2019-01-26T17:22:27.155Z,6.87
2019-01-26T17:24:57.306Z,6.40
2019-01-26T17:27:27.472Z,5.73
2019-01-26T17:29:57.629Z,6.10
2019-01-26T17:32:27.763Z,5.50
2019-01-26T17:34:59.655Z,6.10
2019-01-26T17:37:29.814Z,5.93
2019-01-26T17:40:01.446Z,6.90
2019-01-26T17:42:31.875Z,5.70
2019-01-26T17:45:02.308Z,7.90
2019-01-26T17:47:32.481Z,7.60
2019-01-26T17:50:02.640Z,7.00
2019-01-26T17:52:32.838Z,5.83
2019-01-26T17:55:03.252Z,5.63
2019-01-26T17:57:33.399Z,7.00
2019-01-26T18:00:04.621Z,6.90
2019-01-26T18:02:34.865Z,6.43
2019-01-26T18:05:09.340Z,8.83
2019-01-26T18:07:39.668Z,6.40
2019-01-26T18:10:25.798Z,6.20
2019-01-26T18:12:57.156Z,8.03
2019-01-26T18:15:27.311Z,7.80
2019-01-26T18:17:57.504Z,8.40
2019-01-26T18:20:29.831Z,9.80
2019-01-26T18:23:01.665Z,9.25
2019-01-26T18:25:33.474Z,8.47
2019-01-26T18:28:03.629Z,10.30
2019-01-26T18:30:37.612Z,9.53
2019-01-26T18:33:08.040Z,10.40
2019-01-26T18:35:38.274Z,10.17
2019-01-26T18:38:08.697Z,10.83
2019-01-26T18:40:38.910Z,10.53
2019-01-26T18:43:09.101Z,11.70
2019-01-26T18:45:39.546Z,13.80
2019-01-26T18:48:09.712Z,11.57
2019-01-26T18:50:44.583Z,9.80
2019-01-26T18:53:14.729Z,10.00
2019-01-26T18:55:44.893Z,11.47
2019-01-26T18:58:15.056Z,10.00
2019-01-26T19:00:47.933Z,9.93
2019-01-26T19:03:25.836Z,9.00
2019-01-26T19:05:59.094Z,10.17
2019-01-26T19:08:29.317Z,9.43
2019-01-26T19:10:59.480Z,9.10
2019-01-26T19:13:29.637Z,9.77
2019-01-26T19:15:59.807Z,8.80
2019-01-26T19:18:29.952Z,8.80
2019-01-26T19:21:03.383Z,8.70
2019-01-26T19:23:31.971Z,10.00
2019-01-26T19:26:02.105Z,7.73
2019-01-26T19:28:32.269Z,10.77
2019-01-26T19:31:02.423Z,9.73
2019-01-26T19:33:32.573Z,9.10
2019-01-26T19:36:02.772Z,8.60
2019-01-26T19:38:32.938Z,8.13
2019-01-26T19:41:03.083Z,7.80
2019-01-26T19:43:33.254Z,8.63
2019-01-26T19:46:03.408Z,9.43
2019-01-26T19:48:33.595Z,7.67
2019-01-26T19:51:09.732Z,7.70
2019-01-26T19:53:35.769Z,7.93
2019-01-26T19:56:06.467Z,7.10
2019-01-26T19:58:36.601Z,6.73
2019-01-26T20:01:06.935Z,7.73
2019-01-26T20:03:37.100Z,7.20
2019-01-26T20:06:07.373Z,6.10
2019-01-26T20:08:37.576Z,8.20
2019-01-26T20:11:07.966Z,7.03
2019-01-26T20:13:38.118Z,6.83
2019-01-26T20:16:08.351Z,5.70
2019-01-26T20:18:38.512Z,6.77
2019-01-26T20:21:08.914Z,6.40
2019-01-26T20:23:39.140Z,6.17
2019-01-26T20:26:09.319Z,5.10
2019-01-26T20:28:39.508Z,5.17
2019-01-26T20:31:09.856Z,5.90
2019-01-26T20:33:40.012Z,7.10
2019-01-26T20:36:10.201Z,6.40
2019-01-26T20:38:40.402Z,5.93
2019-01-26T20:41:10.576Z,5.60
2019-01-26T20:43:40.709Z,4.97
2019-01-26T20:46:10.933Z,6.47
2019-01-26T20:48:41.091Z,5.50
2019-01-26T20:51:11.327Z,5.40
2019-01-26T20:53:41.536Z,5.87
2019-01-26T20:56:11.798Z,5.43
2019-01-26T20:58:42.024Z,5.20
2019-01-26T21:01:12.214Z,6.57
2019-01-26T21:03:42.345Z,5.40
2019-01-26T21:06:12.543Z,5.77
2019-01-26T21:08:42.732Z,5.97
2019-01-26T21:11:12.933Z,6.87
2019-01-26T21:13:43.095Z,6.57
2019-01-26T21:16:13.264Z,6.60
2019-01-26T21:18:43.481Z,6.23
2019-01-26T21:21:13.673Z,6.73
2019-01-26T21:23:43.860Z,7.10
2019-01-26T21:26:13.995Z,6.20
2019-01-26T21:28:44.191Z,7.50
2019-01-26T21:31:14.332Z,7.13
2019-01-26T21:33:44.512Z,6.57
2019-01-26T21:36:15.690Z,7.30
2019-01-26T21:38:45.842Z,6.57
2019-01-26T21:41:15.979Z,7.20
2019-01-26T21:43:46.158Z,7.10
2019-01-26T21:46:16.304Z,8.00
2019-01-26T21:48:46.466Z,8.30
2019-01-26T21:51:16.700Z,8.30
2019-01-26T21:53:46.858Z,7.20
2019-01-26T21:56:17.009Z,7.40
2019-01-26T21:58:47.156Z,7.30
2019-01-26T22:01:17.382Z,8.57
2019-01-26T22:03:47.519Z,7.70
2019-01-26T22:06:17.701Z,9.77
2019-01-26T22:08:47.859Z,7.50
2019-01-26T22:11:18.007Z,7.63
2019-01-26T22:13:48.199Z,6.70
2019-01-26T22:16:18.310Z,6.67
2019-01-26T22:18:48.457Z,6.73
2019-01-26T22:21:18.601Z,6.80
2019-01-26T22:23:48.759Z,7.12
2019-01-26T22:26:18.907Z,6.83
2019-01-26T22:28:49.059Z,6.63
2019-01-26T22:31:19.216Z,8.23
2019-01-26T22:33:49.367Z,5.47
2019-01-26T22:36:19.519Z,7.03
2019-01-26T22:38:49.669Z,8.00
2019-01-26T22:41:19.843Z,8.50
2019-01-26T22:43:49.978Z,7.50
2019-01-26T22:46:20.121Z,9.00
2019-01-26T22:48:50.377Z,8.80
2019-01-26T22:51:20.508Z,7.97
2019-01-26T22:55:01.017Z,9.33
2019-01-26T22:57:31.176Z,7.10
2019-01-26T23:00:01.310Z,8.33
2019-01-26T23:02:31.569Z,6.97
2019-01-26T23:05:24.096Z,9.97
2019-01-26T23:11:59.234Z,9.33
2019-01-26T23:14:52.217Z,7.27
2019-01-26T23:17:32.298Z,8.63
2019-01-26T23:20:09.898Z,7.10
2019-01-26T23:23:08.532Z,8.60
2019-01-26T23:25:49.218Z,6.27
2019-01-26T23:28:40.635Z,6.37
2019-01-26T23:31:11.936Z,8.50
2019-01-26T23:33:42.494Z,7.80
2019-01-26T23:36:13.277Z,8.13
2019-01-26T23:38:44.414Z,7.67
2019-01-26T23:41:14.586Z,6.70
2019-01-26T23:43:44.805Z,7.00
2019-01-26T23:46:14.948Z,6.30
2019-01-26T23:48:45.298Z,4.80
2019-01-26T23:51:15.709Z,6.27
2019-01-26T23:53:45.808Z,6.93
2019-01-26T23:56:16.088Z,7.07
2019-01-26T23:58:46.253Z,6.67
